Time;durP1;ratioP1;P1;durP2;ratioP2;P2;SDS_P1;SDS_P2;PMS_P1;PMS_P2;Temp;Humidity;BMP_temperature;BMP_pressure;BME280_temperature;BME280_humidity;BME280_pressure;Samples;Min_cycle;Max_cycle;Signal;HPM_P1;HPM_P2
2021/12/17 00:00:26;;;;;;;28.42;11.02;;;;;;;;;;5059570;28;20080;-56
2021/12/17 00:03:18;;;;;;;16.57;7.23;;;;;;;;;;5062419;28;20063;-57
2021/12/17 00:05:53;;;;;;;21.05;8.15;;;;;;;;;;5057464;28;20307;-57
2021/12/17 00:08:20;;;;;;;17.52;8.20;;;;;;;;;;5063142;28;20048;-57
2021/12/17 00:10:47;;;;;;;20.90;8.65;;;;;;;;;;5066685;28;20140;-56
2021/12/17 00:13:16;;;;;;;21.10;8.38;;;;;;;;;;5074040;28;20048;-56
2021/12/17 00:15:45;;;;;;;18.77;7.82;;;;;;;;;;5078287;28;20079;-57
2021/12/17 00:18:17;;;;;;;34.97;11.82;;;;;;;;;;5082455;28;20048;-58
2021/12/17 00:40:09;;;;;;;26.02;11.45;;;;;;;;;;5078126;28;20063;-57
2021/12/17 00:48:35;;;;;;;33.35;10.38;;;;;;;;;;5047824;28;20056;-58
2021/12/17 00:51:31;;;;;;;18.63;7.93;;;;;;;;;;5082953;28;20101;-59
2021/12/17 00:53:58;;;;;;;33.30;10.45;;;;;;;;;;5059119;28;20056;-58
2021/12/17 00:56:25;;;;;;;26.88;10.88;;;;;;;;;;5045968;28;20132;-59
2021/12/17 00:58:51;;;;;;;34.08;12.85;;;;;;;;;;5068734;28;20133;-59
2021/12/17 01:01:18;;;;;;;28.02;11.68;;;;;;;;;;5068115;28;20087;-59
2021/12/17 01:03:55;;;;;;;31.83;10.82;;;;;;;;;;5046522;28;20053;-59
2021/12/17 01:06:21;;;;;;;33.83;13.02;;;;;;;;;;5066499;28;20111;-57
2021/12/17 01:08:48;;;;;;;36.17;12.73;;;;;;;;;;5063073;28;20140;-57
2021/12/17 01:11:14;;;;;;;32.75;12.30;;;;;;;;;;5069076;28;20044;-58
2021/12/17 01:13:41;;;;;;;30.02;11.15;;;;;;;;;;5064824;28;20131;-58
2021/12/17 01:16:08;;;;;;;29.17;10.75;;;;;;;;;;5068362;28;20060;-59
2021/12/17 01:18:46;;;;;;;31.10;11.07;;;;;;;;;;5052612;28;20067;-58
2021/12/17 01:21:31;;;;;;;29.80;10.13;;;;;;;;;;5048082;28;20051;-58
2021/12/17 01:24:07;;;;;;;31.30;12.02;;;;;;;;;;5046007;28;20049;-59
2021/12/17 01:43:01;;;;;;;41.17;13.52;;;;;;;;;;5047173;28;20093;-58
2021/12/17 01:45:32;;;;;;;33.53;12.63;;;;;;;;;;5043801;28;20130;-59
2021/12/17 01:48:01;;;;;;;36.33;13.27;;;;;;;;;;5047881;28;20053;-58
2021/12/17 01:56:15;;;;;;;40.55;13.65;;;;;;;;;;5065461;28;20075;-58
2021/12/17 02:01:35;;;;;;;33.25;11.15;;;;;;;;;;5023801;28;20056;-58
2021/12/17 02:04:03;;;;;;;17.13;7.47;;;;;;;;;;5044392;28;20083;-58
2021/12/17 02:06:31;;;;;;;38.50;12.82;;;;;;;;;;5065910;28;20057;-58
2021/12/17 02:09:00;;;;;;;45.90;14.68;;;;;;;;;;5065706;28;20135;-58
2021/12/17 02:12:06;;;;;;;49.88;14.55;;;;;;;;;;5063415;28;20044;-58
2021/12/17 02:20:12;;;;;;;44.70;13.50;;;;;;;;;;5027699;28;20150;-58
2021/12/17 02:23:18;;;;;;;45.28;14.15;;;;;;;;;;5047317;28;20081;-58
2021/12/17 02:31:23;;;;;;;40.53;12.95;;;;;;;;;;5044069;28;20198;-58
2021/12/17 02:33:50;;;;;;;47.17;15.15;;;;;;;;;;5049128;28;20053;-58
2021/12/17 02:36:20;;;;;;;45.22;13.35;;;;;;;;;;5036930;28;20136;-59
2021/12/17 02:38:48;;;;;;;46.40;13.70;;;;;;;;;;5029416;28;20061;-58
2021/12/17 02:46:57;;;;;;;;;;;;;;;;;;5005254;28;20049;-58
2021/12/17 02:49:23;;;;;;;36.58;12.57;;;;;;;;;;5008370;28;19996;-58
2021/12/17 02:51:50;;;;;;;41.95;13.60;;;;;;;;;;5018967;28;20077;-58
2021/12/17 02:54:19;;;;;;;45.42;14.82;;;;;;;;;;5046397;28;20056;-58
2021/12/17 02:56:45;;;;;;;45.80;14.70;;;;;;;;;;5042222;28;20064;-58
2021/12/17 02:59:13;;;;;;;32.40;10.57;;;;;;;;;;5046404;28;20084;-58
2021/12/17 03:01:41;;;;;;;35.65;10.98;;;;;;;;;;5041571;28;20044;-57
2021/12/17 03:04:09;;;;;;;17.63;7.10;;;;;;;;;;5045945;28;20130;-57
2021/12/17 03:06:36;;;;;;;20.70;8.45;;;;;;;;;;5041993;28;20057;-57
2021/12/17 03:09:04;;;;;;;50.17;14.40;;;;;;;;;;5045833;28;20076;-58
2021/12/17 03:11:32;;;;;;;20.38;7.63;;;;;;;;;;5046096;28;20076;-58
2021/12/17 03:13:58;;;;;;;20.10;7.10;;;;;;;;;;5040711;28;20080;-57
2021/12/17 03:16:31;;;;;;;47.92;12.60;;;;;;;;;;5042175;28;20052;-57
2021/12/17 03:19:05;;;;;;;40.40;12.38;;;;;;;;;;5038466;28;20143;-57
2021/12/17 03:24:18;;;;;;;37.13;11.90;;;;;;;;;;5061150;28;20079;-57
2021/12/17 03:26:46;;;;;;;24.15;9.48;;;;;;;;;;5065462;28;20057;-58
2021/12/17 03:29:14;;;;;;;42.60;12.83;;;;;;;;;;5061417;28;20057;-57
2021/12/17 03:31:41;;;;;;;40.92;13.13;;;;;;;;;;5066159;28;20083;-58
2021/12/17 03:34:18;;;;;;;33.67;10.80;;;;;;;;;;5047971;28;20124;-57
2021/12/17 03:36:47;;;;;;;40.80;12.18;;;;;;;;;;5045117;28;20079;-57
2021/12/17 03:39:13;;;;;;;42.58;12.00;;;;;;;;;;5055814;28;20052;-56
2021/12/17 03:41:47;;;;;;;46.00;13.70;;;;;;;;;;5066129;28;20145;-57
2021/12/17 03:44:15;;;;;;;41.58;12.88;;;;;;;;;;5050213;28;20060;-56
2021/12/17 03:46:41;;;;;;;37.80;12.03;;;;;;;;;;5045754;28;20120;-58
2021/12/17 03:49:07;;;;;;;36.80;12.40;;;;;;;;;;5051659;28;20080;-57
2021/12/17 03:51:46;;;;;;;47.35;13.60;;;;;;;;;;5066031;28;20057;-57
2021/12/17 03:54:13;;;;;;;25.63;9.18;;;;;;;;;;5054382;28;20184;-57
2021/12/17 03:56:39;;;;;;;43.00;12.13;;;;;;;;;;5045827;28;20098;-58
2021/12/17 03:59:10;;;;;;;36.17;11.63;;;;;;;;;;5049225;28;20072;-55
2021/12/17 04:01:38;;;;;;;22.48;8.27;;;;;;;;;;5067646;28;20048;-57
2021/12/17 04:04:05;;;;;;;35.50;10.67;;;;;;;;;;5062659;28;20052;-58
2021/12/17 04:06:31;;;;;;;36.90;11.18;;;;;;;;;;5065562;28;20044;-58
2021/12/17 04:08:58;;;;;;;37.85;12.10;;;;;;;;;;5060710;28;20055;-57
2021/12/17 04:11:24;;;;;;;23.38;8.32;;;;;;;;;;5045744;28;20049;-58
2021/12/17 04:13:54;;;;;;;27.70;9.65;;;;;;;;;;5065583;28;20060;-58
2021/12/17 04:16:24;;;;;;;27.98;8.80;;;;;;;;;;5060262;28;20084;-58
2021/12/17 04:18:53;;;;;;;28.23;9.60;;;;;;;;;;5064696;28;20052;-57
2021/12/17 04:21:19;;;;;;;38.65;12.80;;;;;;;;;;5060717;28;20048;-56
2021/12/17 04:23:47;;;;;;;38.17;10.93;;;;;;;;;;5065116;28;20056;-58
2021/12/17 04:26:15;;;;;;;39.53;12.65;;;;;;;;;;5060680;28;20048;-57
2021/12/17 04:28:44;;;;;;;44.53;12.48;;;;;;;;;;5082318;28;20114;-57
2021/12/17 04:31:11;;;;;;;41.80;12.45;;;;;;;;;;5068530;28;20053;-58
2021/12/17 04:33:39;;;;;;;38.63;11.50;;;;;;;;;;5049013;28;20068;-58
2021/12/17 04:36:08;;;;;;;38.80;11.67;;;;;;;;;;5055425;28;20053;-59
2021/12/17 04:38:34;;;;;;;36.15;11.48;;;;;;;;;;5069033;28;20345;-58
2021/12/17 04:41:31;;;;;;;35.00;11.02;;;;;;;;;;5064091;28;20048;-58
2021/12/17 04:43:57;;;;;;;32.95;10.10;;;;;;;;;;5067689;28;20049;-57
2021/12/17 04:46:31;;;;;;;27.35;8.80;;;;;;;;;;5056061;28;20060;-58
2021/12/17 04:57:28;;;;;;;23.33;8.35;;;;;;;;;;5051848;28;20087;-57
2021/12/17 04:59:55;;;;;;;44.95;11.73;;;;;;;;;;5048664;28;20061;-58
2021/12/17 05:02:22;;;;;;;24.90;8.63;;;;;;;;;;5054655;28;20053;-57
2021/12/17 05:04:49;;;;;;;30.58;9.15;;;;;;;;;;5048435;28;20061;-57
2021/12/17 05:07:17;;;;;;;38.10;12.32;;;;;;;;;;5044842;28;20045;-57
2021/12/17 05:09:50;;;;;;;39.93;12.60;;;;;;;;;;5048227;28;20060;-58
2021/12/17 05:20:41;;;;;;;37.03;11.40;;;;;;;;;;5068710;28;20068;-58
2021/12/17 05:23:10;;;;;;;40.60;11.25;;;;;;;;;;5052368;28;20053;-57
2021/12/17 05:25:36;;;;;;;24.63;8.48;;;;;;;;;;5048512;28;20131;-58
2021/12/17 05:28:03;;;;;;;27.40;9.02;;;;;;;;;;5053175;28;20080;-58
2021/12/17 05:30:30;;;;;;;31.45;9.57;;;;;;;;;;5050371;28;20104;-58
2021/12/17 05:32:58;;;;;;;29.80;9.98;;;;;;;;;;5049541;28;20052;-57
2021/12/17 05:35:25;;;;;;;31.88;10.00;;;;;;;;;;5047692;28;20057;-57
2021/12/17 05:37:51;;;;;;;29.15;9.07;;;;;;;;;;5046033;28;20071;-57
2021/12/17 05:40:19;;;;;;;31.42;9.63;;;;;;;;;;5062974;28;20077;-57
2021/12/17 05:42:48;;;;;;;23.27;7.90;;;;;;;;;;5063349;28;20080;-57
2021/12/17 05:45:22;;;;;;;;;;;;;;;;;;5067693;28;20056;-57
2021/12/17 05:47:49;;;;;;;25.52;6.70;;;;;;;;;;5063531;28;19998;-57
2021/12/17 05:50:16;;;;;;;30.50;9.13;;;;;;;;;;5067588;28;20072;-57
2021/12/17 05:52:44;;;;;;;28.75;8.10;;;;;;;;;;5067818;28;20053;-58
2021/12/17 05:55:10;;;;;;;27.63;9.50;;;;;;;;;;5063228;28;20056;-57
2021/12/17 05:57:38;;;;;;;32.35;8.77;;;;;;;;;;5067513;28;20049;-57
2021/12/17 06:00:05;;;;;;;38.47;10.33;;;;;;;;;;5047226;28;20152;-58
2021/12/17 06:02:32;;;;;;;27.77;10.23;;;;;;;;;;5048586;28;20056;-58
2021/12/17 06:04:59;;;;;;;22.27;7.90;;;;;;;;;;5058601;28;20106;-58
2021/12/17 06:07:26;;;;;;;36.30;10.95;;;;;;;;;;5067010;28;20126;-57
2021/12/17 06:09:58;;;;;;;23.60;7.57;;;;;;;;;;5060062;28;20048;-57
2021/12/17 06:12:25;;;;;;;26.50;8.73;;;;;;;;;;5051769;28;20076;-57
2021/12/17 06:14:53;;;;;;;28.65;9.50;;;;;;;;;;5062946;28;20056;-59
2021/12/17 06:17:19;;;;;;;29.47;9.50;;;;;;;;;;5067129;28;20056;-58
2021/12/17 06:19:46;;;;;;;34.15;10.85;;;;;;;;;;5051543;28;20315;-58
2021/12/17 06:22:14;;;;;;;31.92;10.15;;;;;;;;;;5047080;28;20087;-56
2021/12/17 06:24:44;;;;;;;24.40;8.75;;;;;;;;;;5048819;28;20047;-57
2021/12/17 06:27:10;;;;;;;30.52;10.15;;;;;;;;;;5067300;28;20056;-57
2021/12/17 06:29:37;;;;;;;37.53;11.13;;;;;;;;;;5062935;28;20127;-57
2021/12/17 06:32:05;;;;;;;27.08;8.75;;;;;;;;;;5066884;28;20052;-57
2021/12/17 06:34:32;;;;;;;31.83;9.57;;;;;;;;;;5062693;28;20052;-57
2021/12/17 06:36:58;;;;;;;28.08;8.77;;;;;;;;;;5046394;28;20076;-57
2021/12/17 06:39:25;;;;;;;28.42;9.45;;;;;;;;;;5054862;28;20056;-57
2021/12/17 06:41:51;;;;;;;26.08;8.80;;;;;;;;;;5045123;28;20049;-57
2021/12/17 06:44:22;;;;;;;25.83;8.38;;;;;;;;;;5046141;28;20049;-57
2021/12/17 06:46:56;;;;;;;24.05;7.53;;;;;;;;;;5059046;28;20078;-57
2021/12/17 06:49:30;;;;;;;23.77;9.07;;;;;;;;;;5065099;28;20052;-58
2021/12/17 06:54:57;;;;;;;26.25;8.50;;;;;;;;;;5067659;28;20052;-57
2021/12/17 07:00:18;;;;;;;23.52;7.75;;;;;;;;;;5037625;28;20181;-57
2021/12/17 07:10:59;;;;;;;23.83;7.80;;;;;;;;;;5031764;28;20138;-57
2021/12/17 07:21:54;;;;;;;22.77;7.32;;;;;;;;;;5036224;28;20198;-58
2021/12/17 07:33:04;;;;;;;28.35;8.93;;;;;;;;;;5038426;28;20049;-58
2021/12/17 07:35:49;;;;;;;23.90;7.85;;;;;;;;;;5024527;28;20053;-57
2021/12/17 07:41:01;;;;;;;26.67;8.40;;;;;;;;;;5025890;28;20068;-56
2021/12/17 07:43:34;;;;;;;27.73;7.93;;;;;;;;;;5041203;28;20049;-58
2021/12/17 07:46:04;;;;;;;21.67;7.25;;;;;;;;;;5045015;28;20061;-57
2021/12/17 07:48:31;;;;;;;26.90;8.18;;;;;;;;;;5042409;28;20103;-57
2021/12/17 07:50:57;;;;;;;22.17;7.60;;;;;;;;;;5047247;28;20136;-57
2021/12/17 07:53:25;;;;;;;21.33;6.75;;;;;;;;;;5037960;28;20148;-57
2021/12/17 07:55:52;;;;;;;22.65;7.78;;;;;;;;;;5028535;28;20461;-57
2021/12/17 07:58:18;;;;;;;20.65;7.22;;;;;;;;;;5039729;28;20049;-57
2021/12/17 08:00:45;;;;;;;19.92;6.10;;;;;;;;;;5044368;28;20087;-57
2021/12/17 08:03:14;;;;;;;22.40;7.28;;;;;;;;;;5041013;28;20141;-57
2021/12/17 08:05:42;;;;;;;20.95;7.20;;;;;;;;;;5065623;28;20044;-57
2021/12/17 08:08:08;;;;;;;21.33;6.50;;;;;;;;;;5045044;28;20072;-58
2021/12/17 08:10:36;;;;;;;22.83;7.07;;;;;;;;;;5046227;28;20088;-58
2021/12/17 08:13:06;;;;;;;19.65;7.15;;;;;;;;;;5047251;28;20114;-57
2021/12/17 08:15:38;;;;;;;23.00;6.95;;;;;;;;;;5040233;28;20103;-58
2021/12/17 08:18:21;;;;;;;21.65;6.35;;;;;;;;;;5064523;28;20057;-57
2021/12/17 08:26:20;;;;;;;16.45;5.90;;;;;;;;;;5061987;28;20097;-57
2021/12/17 08:28:56;;;;;;;19.00;5.63;;;;;;;;;;5067517;28;20056;-57
2021/12/17 08:31:23;;;;;;;17.98;5.80;;;;;;;;;;5062549;28;20135;-57
2021/12/17 08:33:51;;;;;;;16.17;5.32;;;;;;;;;;5065804;28;20087;-57
2021/12/17 08:36:18;;;;;;;17.58;6.00;;;;;;;;;;5057089;28;20088;-57
2021/12/17 08:38:45;;;;;;;18.95;6.35;;;;;;;;;;5063548;28;20056;-57
2021/12/17 08:41:14;;;;;;;11.32;4.68;;;;;;;;;;5061371;28;20155;-56
2021/12/17 08:43:41;;;;;;;20.98;6.53;;;;;;;;;;5063053;28;20052;-57
2021/12/17 08:46:07;;;;;;;16.67;5.25;;;;;;;;;;5058156;28;20134;-58
2021/12/17 08:48:34;;;;;;;15.00;5.50;;;;;;;;;;5064563;28;20113;-57
2021/12/17 08:51:00;;;;;;;20.50;5.78;;;;;;;;;;5048162;28;20060;-58
2021/12/17 08:53:27;;;;;;;14.90;5.35;;;;;;;;;;5065828;28;20124;-57
2021/12/17 08:55:54;;;;;;;15.07;4.93;;;;;;;;;;5060809;28;20074;-57
2021/12/17 08:58:22;;;;;;;12.68;4.78;;;;;;;;;;5063352;28;20080;-58
2021/12/17 09:00:48;;;;;;;14.85;4.57;;;;;;;;;;5061159;28;20087;-56
2021/12/17 09:03:14;;;;;;;18.55;5.20;;;;;;;;;;5063716;28;20133;-57
2021/12/17 09:05:42;;;;;;;19.45;5.47;;;;;;;;;;5059355;28;20040;-57
2021/12/17 09:08:09;;;;;;;14.25;5.15;;;;;;;;;;5062248;28;20044;-57
2021/12/17 09:10:36;;;;;;;19.35;5.07;;;;;;;;;;5058231;28;20152;-57
2021/12/17 09:13:04;;;;;;;15.07;4.93;;;;;;;;;;5065201;28;20048;-57
2021/12/17 09:15:32;;;;;;;10.87;3.87;;;;;;;;;;5076685;28;20056;-57
2021/12/17 09:17:58;;;;;;;13.45;5.10;;;;;;;;;;5053233;28;20110;-57
2021/12/17 09:20:24;;;;;;;13.38;4.38;;;;;;;;;;5061853;28;20111;-57
2021/12/17 09:22:52;;;;;;;14.27;4.75;;;;;;;;;;5059669;28;20139;-57
2021/12/17 09:25:19;;;;;;;14.30;4.50;;;;;;;;;;5064508;28;20095;-57
2021/12/17 09:27:45;;;;;;;11.25;4.13;;;;;;;;;;5063431;28;20061;-57
2021/12/17 09:30:13;;;;;;;14.18;4.30;;;;;;;;;;5063494;28;20102;-58
2021/12/17 09:32:44;;;;;;;10.77;3.90;;;;;;;;;;5060116;28;20056;-57
2021/12/17 09:35:11;;;;;;;14.77;4.50;;;;;;;;;;5062440;28;20129;-57
2021/12/17 09:37:38;;;;;;;14.50;4.65;;;;;;;;;;5060179;28;20057;-55
2021/12/17 09:40:07;;;;;;;12.65;4.63;;;;;;;;;;5063065;28;20437;-57
2021/12/17 09:42:33;;;;;;;;;;;;;;;;;;5061193;28;20186;-58
2021/12/17 09:44:59;;;;;;;12.52;4.00;;;;;;;;;;5066174;28;19990;-57
2021/12/17 09:47:26;;;;;;;14.95;4.57;;;;;;;;;;5061022;28;20057;-58
2021/12/17 09:49:55;;;;;;;16.10;4.63;;;;;;;;;;5067024;28;20064;-58
2021/12/17 09:52:23;;;;;;;15.13;4.32;;;;;;;;;;5075586;28;20114;-58
2021/12/17 09:54:50;;;;;;;;;;;;;;;;;;5065112;28;20699;-57
2021/12/17 09:57:17;;;;;;;9.10;3.20;;;;;;;;;;5065141;28;20484;-57
2021/12/17 09:59:43;;;;;;;10.68;3.72;;;;;;;;;;5055375;28;20056;-57
2021/12/17 10:02:10;;;;;;;11.07;3.63;;;;;;;;;;5047185;28;20152;-57
2021/12/17 10:04:40;;;;;;;8.98;3.80;;;;;;;;;;5026690;28;20049;-57
2021/12/17 10:07:21;;;;;;;9.32;3.22;;;;;;;;;;5026762;28;20062;-58
2021/12/17 10:09:48;;;;;;;10.48;3.10;;;;;;;;;;5041075;28;20136;-57
2021/12/17 10:12:16;;;;;;;14.52;4.32;;;;;;;;;;5047118;28;20052;-57
2021/12/17 10:14:43;;;;;;;11.55;3.45;;;;;;;;;;5043242;28;20053;-57
2021/12/17 10:17:10;;;;;;;9.68;3.25;;;;;;;;;;5045109;28;20058;-57
2021/12/17 10:19:46;;;;;;;10.23;3.30;;;;;;;;;;5039577;28;20049;-57
2021/12/17 10:22:14;;;;;;;9.55;3.50;;;;;;;;;;5027062;28;20141;-57
2021/12/17 10:24:44;;;;;;;10.90;3.15;;;;;;;;;;5034504;28;20052;-56
2021/12/17 10:27:21;;;;;;;10.95;3.00;;;;;;;;;;5041370;28;20057;-56
2021/12/17 10:29:48;;;;;;;10.10;3.15;;;;;;;;;;5046978;28;20152;-57
2021/12/17 10:32:18;;;;;;;6.95;2.53;;;;;;;;;;5029926;28;20169;-58
2021/12/17 10:34:59;;;;;;;9.75;3.30;;;;;;;;;;5032399;28;20064;-57
2021/12/17 10:37:31;;;;;;;9.85;3.05;;;;;;;;;;5063202;28;20053;-57
2021/12/17 10:39:59;;;;;;;7.60;2.63;;;;;;;;;;5043324;28;20409;-58
2021/12/17 10:42:30;;;;;;;8.70;3.00;;;;;;;;;;5045776;28;20167;-57
2021/12/17 10:45:03;;;;;;;8.27;2.78;;;;;;;;;;5043028;28;20418;-58
2021/12/17 10:47:33;;;;;;;6.72;2.25;;;;;;;;;;5046783;28;20141;-57
2021/12/17 10:50:02;;;;;;;6.32;2.28;;;;;;;;;;5042818;28;20052;-58
2021/12/17 10:52:34;;;;;;;;;;;;;;;;;;5046837;28;20063;-57
2021/12/17 10:55:09;;;;;;;6.97;2.35;;;;;;;;;;5042450;28;19931;-58
2021/12/17 10:57:36;;;;;;;4.75;2.17;;;;;;;;;;5046707;28;20049;-57
2021/12/17 11:00:04;;;;;;;5.60;2.20;;;;;;;;;;5042758;28;20053;-57
2021/12/17 11:02:33;;;;;;;;;;;;;;;;;;5046862;28;20077;-57
2021/12/17 11:05:10;;;;;;;7.70;2.30;;;;;;;;;;5043785;28;19925;-58
2021/12/17 11:07:37;;;;;;;7.80;2.42;;;;;;;;;;5045706;28;20080;-58
2021/12/17 11:10:04;;;;;;;9.13;2.65;;;;;;;;;;5046920;28;20126;-58
2021/12/17 11:12:34;;;;;;;5.55;2.25;;;;;;;;;;5039736;28;20053;-58
2021/12/17 11:15:24;;;;;;;8.60;2.95;;;;;;;;;;5027601;28;20049;-59
2021/12/17 11:17:51;;;;;;;5.70;2.08;;;;;;;;;;5027312;28;20049;-58
2021/12/17 11:20:19;;;;;;;9.55;2.40;;;;;;;;;;5047866;28;20478;-58
2021/12/17 11:22:49;;;;;;;9.10;2.65;;;;;;;;;;5039285;28;20053;-58
2021/12/17 11:25:19;;;;;;;8.30;3.33;;;;;;;;;;5042716;28;20092;-57
2021/12/17 11:27:49;;;;;;;7.47;2.33;;;;;;;;;;5073027;28;20130;-58
2021/12/17 11:30:19;;;;;;;6.45;2.22;;;;;;;;;;5047493;28;20127;-58
2021/12/17 11:32:47;;;;;;;6.32;2.42;;;;;;;;;;5042846;28;20080;-57
2021/12/17 11:35:15;;;;;;;7.18;2.38;;;;;;;;;;5046109;28;20122;-58
2021/12/17 11:37:44;;;;;;;8.02;2.95;;;;;;;;;;5038413;28;20136;-58
2021/12/17 11:40:14;;;;;;;7.20;2.55;;;;;;;;;;5039518;28;20098;-58
2021/12/17 11:42:59;;;;;;;3.83;1.80;;;;;;;;;;5041850;28;20069;-58
2021/12/17 11:45:27;;;;;;;5.80;2.03;;;;;;;;;;5045306;28;20056;-59
2021/12/17 11:47:57;;;;;;;5.57;2.10;;;;;;;;;;5041796;28;20045;-58
2021/12/17 11:50:23;;;;;;;5.75;1.65;;;;;;;;;;5045822;28;20193;-58
2021/12/17 11:52:51;;;;;;;7.45;2.60;;;;;;;;;;5042008;28;20342;-57
2021/12/17 11:55:27;;;;;;;6.18;2.15;;;;;;;;;;5044997;28;20117;-57
2021/12/17 11:57:57;;;;;;;3.53;1.45;;;;;;;;;;5041162;28;20049;-55
2021/12/17 12:00:25;;;;;;;2.60;1.23;;;;;;;;;;5045733;28;20065;-57
2021/12/17 12:02:53;;;;;;;3.45;1.45;;;;;;;;;;5042237;28;20079;-57
2021/12/17 12:05:33;;;;;;;4.28;1.20;;;;;;;;;;5044641;28;20139;-57
2021/12/17 12:08:22;;;;;;;3.53;1.60;;;;;;;;;;5042038;28;20143;-57
2021/12/17 12:10:48;;;;;;;;;;;;;;;;;;5043911;28;20171;-57
2021/12/17 12:13:33;;;;;;;2.20;1.17;;;;;;;;;;5043243;28;19932;-57
2021/12/17 12:16:02;;;;;;;2.85;1.20;;;;;;;;;;5045438;28;20235;-56
2021/12/17 12:18:38;;;;;;;4.35;1.90;;;;;;;;;;5041374;28;20049;-57
2021/12/17 12:21:05;;;;;;;4.32;1.63;;;;;;;;;;5045648;28;20135;-57
2021/12/17 12:23:52;;;;;;;3.67;1.33;;;;;;;;;;5041388;28;20126;-57
2021/12/17 12:26:34;;;;;;;4.90;1.47;;;;;;;;;;5054483;28;20159;-57
2021/12/17 12:29:05;;;;;;;3.83;1.38;;;;;;;;;;5056379;28;20422;-57
2021/12/17 12:31:39;;;;;;;4.45;1.67;;;;;;;;;;5053252;28;20056;-57
2021/12/17 12:34:10;;;;;;;4.20;1.40;;;;;;;;;;5067378;28;20052;-57
2021/12/17 12:36:54;;;;;;;3.80;1.75;;;;;;;;;;5063771;28;20064;-58
2021/12/17 12:39:22;;;;;;;4.35;1.70;;;;;;;;;;5060158;28;20091;-57
2021/12/17 12:41:50;;;;;;;3.60;1.40;;;;;;;;;;5064459;28;20055;-57
2021/12/17 12:44:18;;;;;;;7.25;1.80;;;;;;;;;;5062990;28;20052;-57
2021/12/17 12:46:51;;;;;;;2.80;1.00;;;;;;;;;;5064691;28;20055;-58
2021/12/17 12:49:36;;;;;;;4.75;1.27;;;;;;;;;;5058177;28;20138;-57
2021/12/17 12:52:14;;;;;;;2.72;1.30;;;;;;;;;;5044218;28;20055;-57
2021/12/17 12:54:41;;;;;;;4.95;1.70;;;;;;;;;;5048586;28;20053;-57
2021/12/17 12:57:07;;;;;;;3.22;1.33;;;;;;;;;;5046593;28;20057;-57
2021/12/17 12:59:35;;;;;;;3.75;1.50;;;;;;;;;;5042366;28;20077;-57
2021/12/17 13:02:02;;;;;;;3.20;1.10;;;;;;;;;;5047893;28;20149;-57
2021/12/17 13:04:31;;;;;;;3.53;1.50;;;;;;;;;;5047261;28;20122;-58
2021/12/17 13:06:58;;;;;;;3.85;1.30;;;;;;;;;;5043468;28;20363;-57
2021/12/17 13:09:28;;;;;;;3.45;1.42;;;;;;;;;;5046853;28;20076;-57
2021/12/17 13:11:55;;;;;;;3.70;1.35;;;;;;;;;;5041788;28;20057;-57
2021/12/17 13:14:24;;;;;;;2.90;1.13;;;;;;;;;;5045710;28;20140;-58
2021/12/17 13:17:16;;;;;;;3.83;1.63;;;;;;;;;;5040993;28;20070;-57
2021/12/17 13:22:53;;;;;;;3.45;1.58;;;;;;;;;;5063421;28;20044;-57
2021/12/17 13:25:23;;;;;;;3.35;1.50;;;;;;;;;;5067586;28;20087;-57
2021/12/17 13:27:52;;;;;;;2.83;1.40;;;;;;;;;;5067150;28;20052;-57
2021/12/17 13:30:23;;;;;;;3.20;1.52;;;;;;;;;;5063266;28;20060;-57
2021/12/17 13:32:54;;;;;;;2.70;1.27;;;;;;;;;;5060684;28;20077;-57
2021/12/17 13:35:21;;;;;;;3.92;1.30;;;;;;;;;;5065084;28;20052;-57
2021/12/17 13:37:52;;;;;;;4.00;1.40;;;;;;;;;;5053361;28;20053;-57
2021/12/17 13:40:21;;;;;;;2.92;1.20;;;;;;;;;;5082138;28;20674;-57
2021/12/17 13:42:47;;;;;;;3.70;1.30;;;;;;;;;;5061676;28;20140;-57
2021/12/17 13:45:16;;;;;;;3.67;1.70;;;;;;;;;;5074583;28;20287;-57
2021/12/17 13:47:45;;;;;;;2.85;1.23;;;;;;;;;;5061506;28;20286;-57
2021/12/17 13:50:15;;;;;;;3.50;1.60;;;;;;;;;;5068483;28;20056;-57
2021/12/17 13:52:46;;;;;;;6.28;1.83;;;;;;;;;;5058369;28;20076;-57
2021/12/17 13:55:13;;;;;;;4.20;1.65;;;;;;;;;;5060403;28;20060;-57
2021/12/17 13:57:43;;;;;;;3.83;1.38;;;;;;;;;;5060321;28;20044;-57
2021/12/17 14:00:10;;;;;;;4.22;1.40;;;;;;;;;;5065953;28;20112;-57
2021/12/17 14:02:38;;;;;;;3.17;1.63;;;;;;;;;;5059729;28;20057;-57
2021/12/17 14:05:06;;;;;;;4.50;1.27;;;;;;;;;;5065582;28;20060;-57
2021/12/17 14:07:35;;;;;;;3.97;2.03;;;;;;;;;;5062370;28;20060;-57
2021/12/17 14:10:04;;;;;;;5.47;1.83;;;;;;;;;;5066855;28;20052;-57
2021/12/17 14:12:32;;;;;;;3.58;1.67;;;;;;;;;;5066236;28;20052;-57
2021/12/17 14:15:01;;;;;;;3.50;1.27;;;;;;;;;;5050504;28;20643;-57
2021/12/17 14:17:33;;;;;;;3.70;1.48;;;;;;;;;;5060030;28;20118;-57
2021/12/17 14:20:04;;;;;;;2.92;1.30;;;;;;;;;;5066048;28;20045;-58
2021/12/17 14:22:36;;;;;;;3.13;1.42;;;;;;;;;;5063389;28;20131;-58
2021/12/17 14:25:17;;;;;;;3.05;1.30;;;;;;;;;;5060217;28;20083;-57
2021/12/17 14:27:44;;;;;;;3.38;1.60;;;;;;;;;;5065327;28;20175;-59
2021/12/17 14:30:11;;;;;;;2.90;1.40;;;;;;;;;;5058411;28;20478;-57
2021/12/17 14:32:40;;;;;;;2.33;1.38;;;;;;;;;;5063261;28;20156;-59
2021/12/17 14:35:07;;;;;;;5.40;2.03;;;;;;;;;;5058668;28;20048;-58
2021/12/17 14:37:47;;;;;;;6.00;2.05;;;;;;;;;;5065014;28;20076;-57
2021/12/17 14:40:23;;;;;;;4.32;1.80;;;;;;;;;;5078181;28;20080;-57
2021/12/17 14:42:54;;;;;;;3.55;1.80;;;;;;;;;;5061008;28;20072;-57
2021/12/17 14:45:22;;;;;;;5.57;1.65;;;;;;;;;;5065736;28;20095;-57
2021/12/17 14:47:55;;;;;;;4.72;1.90;;;;;;;;;;5064792;28;20053;-57
2021/12/17 15:01:28;;;;;;;3.28;1.45;;;;;;;;;;5047226;28;20079;-58
2021/12/17 15:03:55;;;;;;;6.60;1.98;;;;;;;;;;5043259;28;20057;-57
2021/12/17 15:06:21;;;;;;;5.15;2.05;;;;;;;;;;5040838;28;20052;-57
2021/12/17 15:08:49;;;;;;;4.03;1.70;;;;;;;;;;5046951;28;20056;-58
2021/12/17 15:11:26;;;;;;;2.37;1.37;;;;;;;;;;5042039;28;20054;-57
2021/12/17 15:13:53;;;;;;;5.35;1.75;;;;;;;;;;5059453;28;20052;-57
2021/12/17 15:16:19;;;;;;;4.15;1.70;;;;;;;;;;5038340;28;20057;-57
2021/12/17 15:18:46;;;;;;;5.13;2.13;;;;;;;;;;5045354;28;20080;-58
2021/12/17 15:21:12;;;;;;;2.55;1.23;;;;;;;;;;5041642;28;20041;-57
2021/12/17 15:23:39;;;;;;;3.38;1.90;;;;;;;;;;5042498;28;20096;-57
2021/12/17 15:26:07;;;;;;;4.40;1.95;;;;;;;;;;5038814;28;20119;-58
2021/12/17 15:28:34;;;;;;;3.83;1.70;;;;;;;;;;5044500;28;20140;-58
2021/12/17 15:31:02;;;;;;;4.15;1.83;;;;;;;;;;5038955;28;20049;-57
2021/12/17 15:33:29;;;;;;;2.70;1.48;;;;;;;;;;5044829;28;20147;-57
2021/12/17 15:35:56;;;;;;;4.65;2.05;;;;;;;;;;5041481;28;20060;-57
2021/12/17 15:38:23;;;;;;;3.55;1.70;;;;;;;;;;5046398;28;20052;-57
2021/12/17 15:40:50;;;;;;;5.72;2.25;;;;;;;;;;5062554;28;20059;-57
2021/12/17 15:43:19;;;;;;;4.70;1.90;;;;;;;;;;5063816;28;20072;-57
2021/12/17 15:45:47;;;;;;;3.95;1.85;;;;;;;;;;5050945;28;20048;-57
2021/12/17 15:48:15;;;;;;;5.22;2.30;;;;;;;;;;5059289;28;20057;-57
2021/12/17 15:50:42;;;;;;;4.40;1.90;;;;;;;;;;5061731;28;20056;-57
2021/12/17 15:53:09;;;;;;;3.83;1.80;;;;;;;;;;5061170;28;20119;-57
2021/12/17 15:55:39;;;;;;;5.32;1.50;;;;;;;;;;5059686;28;20409;-57
2021/12/17 15:58:05;;;;;;;4.65;1.73;;;;;;;;;;5056742;28;20143;-58
2021/12/17 16:00:35;;;;;;;3.72;1.85;;;;;;;;;;5062748;28;20041;-57
2021/12/17 16:03:03;;;;;;;7.80;2.38;;;;;;;;;;5057785;28;20045;-58
2021/12/17 16:05:31;;;;;;;7.97;2.17;;;;;;;;;;5061713;28;20151;-57
2021/12/17 16:07:58;;;;;;;3.95;1.90;;;;;;;;;;5058992;28;20165;-57
2021/12/17 16:18:44;;;;;;;5.95;2.63;;;;;;;;;;5051396;28;20087;-57
2021/12/17 16:21:10;;;;;;;5.95;2.50;;;;;;;;;;5075598;28;20052;-57
2021/12/17 16:23:38;;;;;;;5.75;2.35;;;;;;;;;;5058010;28;20052;-57
2021/12/17 16:26:04;;;;;;;3.25;1.75;;;;;;;;;;5048762;28;20080;-57
2021/12/17 16:28:33;;;;;;;4.97;2.25;;;;;;;;;;5056005;28;20584;-58
2021/12/17 16:31:05;;;;;;;3.47;1.55;;;;;;;;;;5066042;28;20064;-57
2021/12/17 16:33:33;;;;;;;3.90;1.92;;;;;;;;;;5064994;28;20052;-58
2021/12/17 16:36:01;;;;;;;;;;;;;;;;;;5069267;28;20062;-57
2021/12/17 16:38:28;;;;;;;6.07;2.15;;;;;;;;;;5064620;28;19991;-58
2021/12/17 16:40:55;;;;;;;4.75;2.10;;;;;;;;;;5067924;28;20072;-57
2021/12/17 16:43:22;;;;;;;5.45;2.13;;;;;;;;;;5062982;28;20051;-57
2021/12/17 16:46:04;;;;;;;4.70;2.25;;;;;;;;;;5066822;28;20053;-57
2021/12/17 16:48:36;;;;;;;5.32;2.17;;;;;;;;;;5070490;28;20083;-57
2021/12/17 16:51:02;;;;;;;6.43;2.47;;;;;;;;;;5068153;28;20102;-57
2021/12/17 16:53:30;;;;;;;9.32;3.22;;;;;;;;;;5066007;28;20305;-58
2021/12/17 16:55:57;;;;;;;5.82;2.17;;;;;;;;;;5081503;28;20052;-57
2021/12/17 16:58:23;;;;;;;6.60;2.60;;;;;;;;;;5068075;28;20477;-57
2021/12/17 17:00:50;;;;;;;9.18;2.63;;;;;;;;;;5065983;28;20142;-58
2021/12/17 17:03:17;;;;;;;6.95;2.72;;;;;;;;;;5067061;28;20055;-58
2021/12/17 17:05:45;;;;;;;5.72;2.72;;;;;;;;;;5064558;28;20040;-58
2021/12/17 17:08:11;;;;;;;5.45;2.42;;;;;;;;;;5070064;28;20044;-58
2021/12/17 17:10:38;;;;;;;7.72;2.08;;;;;;;;;;5065966;28;20072;-57
2021/12/17 17:13:05;;;;;;;3.42;1.90;;;;;;;;;;5067789;28;20044;-57
2021/12/17 17:15:34;;;;;;;6.13;1.98;;;;;;;;;;5062198;28;20044;-58
2021/12/17 17:18:01;;;;;;;5.43;2.10;;;;;;;;;;5066019;28;20074;-58